sensor_id;sensor_type;location;lat;lon;timestamp;pressure;altitude;pressure_sealevel;temperature
19102;BMP280;9683;49.028;12.064;2022-12-07T00:01:47;97126.31;;;5.51
19102;BMP280;9683;49.028;12.064;2022-12-07T00:04:15;97125.31;;;5.52
19102;BMP280;9683;49.028;12.064;2022-12-07T00:06:44;97123.13;;;5.56
19102;BMP280;9683;49.028;12.064;2022-12-07T00:09:12;97121.44;;;5.48
19102;BMP280;9683;49.028;12.064;2022-12-07T00:11:39;97119.03;;;5.47
19102;BMP280;9683;49.028;12.064;2022-12-07T00:14:11;97109.50;;;5.52
19102;BMP280;9683;49.028;12.064;2022-12-07T00:16:38;97113.13;;;5.51
19102;BMP280;9683;49.028;12.064;2022-12-07T00:19:05;97107.66;;;5.46
19102;BMP280;9683;49.028;12.064;2022-12-07T00:21:33;97107.41;;;5.41
19102;BMP280;9683;49.028;12.064;2022-12-07T00:24:00;97103.72;;;5.36
19102;BMP280;9683;49.028;12.064;2022-12-07T00:26:28;97108.41;;;5.34
19102;BMP280;9683;49.028;12.064;2022-12-07T00:28:57;97110.00;;;5.35
19102;BMP280;9683;49.028;12.064;2022-12-07T00:31:27;97111.84;;;5.34
19102;BMP280;9683;49.028;12.064;2022-12-07T00:33:54;97109.56;;;5.31
19102;BMP280;9683;49.028;12.064;2022-12-07T00:36:22;97109.34;;;5.26
19102;BMP280;9683;49.028;12.064;2022-12-07T00:38:49;97109.34;;;5.26
19102;BMP280;9683;49.028;12.064;2022-12-07T00:41:18;97102.63;;;5.24
19102;BMP280;9683;49.028;12.064;2022-12-07T00:43:46;97103.63;;;5.23
19102;BMP280;9683;49.028;12.064;2022-12-07T00:46:14;97101.63;;;5.25
19102;BMP280;9683;49.028;12.064;2022-12-07T00:48:42;97100.00;;;5.24
19102;BMP280;9683;49.028;12.064;2022-12-07T00:51:09;97102.47;;;5.25
19102;BMP280;9683;49.028;12.064;2022-12-07T00:53:37;97104.06;;;5.26
19102;BMP280;9683;49.028;12.064;2022-12-07T00:56:05;97108.56;;;5.26
19102;BMP280;9683;49.028;12.064;2022-12-07T00:58:32;97102.88;;;5.29
19102;BMP280;9683;49.028;12.064;2022-12-07T01:01:00;97097.41;;;5.30
19102;BMP280;9683;49.028;12.064;2022-12-07T01:03:27;97103.69;;;5.29
19102;BMP280;9683;49.028;12.064;2022-12-07T01:05:56;97104.53;;;5.30
19102;BMP280;9683;49.028;12.064;2022-12-07T01:08:24;97106.53;;;5.28
19102;BMP280;9683;49.028;12.064;2022-12-07T01:10:58;97110.16;;;5.27
19102;BMP280;9683;49.028;12.064;2022-12-07T01:13:25;97107.72;;;5.25
19102;BMP280;9683;49.028;12.064;2022-12-07T01:15:51;97120.09;;;5.25
19102;BMP280;9683;49.028;12.064;2022-12-07T01:18:18;97113.00;;;5.25
19102;BMP280;9683;49.028;12.064;2022-12-07T01:20:44;97112.19;;;5.25
19102;BMP280;9683;49.028;12.064;2022-12-07T01:23:12;97114.00;;;5.24
19102;BMP280;9683;49.028;12.064;2022-12-07T01:25:39;97108.31;;;5.21
19102;BMP280;9683;49.028;12.064;2022-12-07T01:28:06;97115.41;;;5.20
19102;BMP280;9683;49.028;12.064;2022-12-07T01:30:32;97111.13;;;5.19
19102;BMP280;9683;49.028;12.064;2022-12-07T01:32:59;97110.69;;;5.16
19102;BMP280;9683;49.028;12.064;2022-12-07T01:35:25;97105.59;;;5.14
19102;BMP280;9683;49.028;12.064;2022-12-07T01:37:52;97099.16;;;5.17
19102;BMP280;9683;49.028;12.064;2022-12-07T01:40:20;97109.31;;;5.20
19102;BMP280;9683;49.028;12.064;2022-12-07T01:42:47;97114.16;;;5.16
19102;BMP280;9683;49.028;12.064;2022-12-07T01:45:36;97104.16;;;5.05
19102;BMP280;9683;49.028;12.064;2022-12-07T01:48:05;97103.25;;;4.98
19102;BMP280;9683;49.028;12.064;2022-12-07T01:50:33;97110.16;;;4.99
19102;BMP280;9683;49.028;12.064;2022-12-07T01:53:03;97106.69;;;4.92
19102;BMP280;9683;49.028;12.064;2022-12-07T01:55:34;97109.88;;;4.87
19102;BMP280;9683;49.028;12.064;2022-12-07T01:58:01;97104.53;;;4.81
19102;BMP280;9683;49.028;12.064;2022-12-07T02:00:28;97113.66;;;4.78
19102;BMP280;9683;49.028;12.064;2022-12-07T02:02:58;97107.19;;;4.81
19102;BMP280;9683;49.028;12.064;2022-12-07T02:05:28;97115.28;;;4.79
19102;BMP280;9683;49.028;12.064;2022-12-07T02:07:56;97109.19;;;4.79
19102;BMP280;9683;49.028;12.064;2022-12-07T02:10:29;97118.09;;;4.78
19102;BMP280;9683;49.028;12.064;2022-12-07T02:13:00;97107.13;;;4.74
19102;BMP280;9683;49.028;12.064;2022-12-07T02:15:39;97096.03;;;4.79
19102;BMP280;9683;49.028;12.064;2022-12-07T02:18:13;97103.72;;;4.80
19102;BMP280;9683;49.028;12.064;2022-12-07T02:20:51;97104.53;;;4.81
19102;BMP280;9683;49.028;12.064;2022-12-07T02:23:59;97112.09;;;4.84
19102;BMP280;9683;49.028;12.064;2022-12-07T02:26:57;97096.47;;;4.82
19102;BMP280;9683;49.028;12.064;2022-12-07T02:29:33;97102.72;;;4.81
19102;BMP280;9683;49.028;12.064;2022-12-07T02:32:06;97100.72;;;4.83
19102;BMP280;9683;49.028;12.064;2022-12-07T02:34:43;97101.72;;;4.82
19102;BMP280;9683;49.028;12.064;2022-12-07T02:37:19;97095.81;;;4.80
19102;BMP280;9683;49.028;12.064;2022-12-07T02:39:51;97095.03;;;4.80
19102;BMP280;9683;49.028;12.064;2022-12-07T02:42:25;97097.47;;;4.81
19102;BMP280;9683;49.028;12.064;2022-12-07T02:44:56;97100.31;;;4.80
19102;BMP280;9683;49.028;12.064;2022-12-07T02:47:24;97092.75;;;4.77
19102;BMP280;9683;49.028;12.064;2022-12-07T02:49:51;97104.28;;;4.76
19102;BMP280;9683;49.028;12.064;2022-12-07T02:52:18;97095.66;;;4.60
19102;BMP280;9683;49.028;12.064;2022-12-07T02:54:45;97103.88;;;4.51
19102;BMP280;9683;49.028;12.064;2022-12-07T02:57:23;97098.44;;;4.52
19102;BMP280;9683;49.028;12.064;2022-12-07T03:00:00;97096.03;;;4.57
19102;BMP280;9683;49.028;12.064;2022-12-07T03:02:34;97094.78;;;4.53
19102;BMP280;9683;49.028;12.064;2022-12-07T03:05:13;97091.34;;;4.53
19102;BMP280;9683;49.028;12.064;2022-12-07T03:07:49;97085.81;;;4.48
19102;BMP280;9683;49.028;12.064;2022-12-07T03:10:22;97088.88;;;4.51
19102;BMP280;9683;49.028;12.064;2022-12-07T03:12:57;97079.81;;;4.54
19102;BMP280;9683;49.028;12.064;2022-12-07T03:15:32;97086.69;;;4.55
19102;BMP280;9683;49.028;12.064;2022-12-07T03:18:00;97087.47;;;4.49
19102;BMP280;9683;49.028;12.064;2022-12-07T03:20:29;97078.31;;;4.45
19102;BMP280;9683;49.028;12.064;2022-12-07T03:22:56;97087.59;;;4.41
19102;BMP280;9683;49.028;12.064;2022-12-07T03:25:24;97092.66;;;4.42
19102;BMP280;9683;49.028;12.064;2022-12-07T03:27:54;97088.03;;;4.44
19102;BMP280;9683;49.028;12.064;2022-12-07T03:30:23;97076.66;;;4.44
19102;BMP280;9683;49.028;12.064;2022-12-07T03:32:56;97079.25;;;4.37
19102;BMP280;9683;49.028;12.064;2022-12-07T03:35:27;97080.88;;;4.38
19102;BMP280;9683;49.028;12.064;2022-12-07T03:37:57;97077.25;;;4.39
19102;BMP280;9683;49.028;12.064;2022-12-07T03:40:28;97071.97;;;4.39
19102;BMP280;9683;49.028;12.064;2022-12-07T03:42:57;97078.31;;;4.45
19102;BMP280;9683;49.028;12.064;2022-12-07T03:45:31;97085.44;;;4.51
19102;BMP280;9683;49.028;12.064;2022-12-07T03:48:06;97078.78;;;4.55
19102;BMP280;9683;49.028;12.064;2022-12-07T03:50:38;97086.34;;;4.58
19102;BMP280;9683;49.028;12.064;2022-12-07T03:53:11;97076.78;;;4.57
19102;BMP280;9683;49.028;12.064;2022-12-07T03:55:42;97071.34;;;4.58
19102;BMP280;9683;49.028;12.064;2022-12-07T03:58:11;97065.28;;;4.58
19102;BMP280;9683;49.028;12.064;2022-12-07T04:00:40;97057.50;;;4.50
19102;BMP280;9683;49.028;12.064;2022-12-07T04:03:09;97061.69;;;4.44
19102;BMP280;9683;49.028;12.064;2022-12-07T04:05:37;97071.97;;;4.39
19102;BMP280;9683;49.028;12.064;2022-12-07T04:08:04;97082.13;;;4.42
19102;BMP280;9683;49.028;12.064;2022-12-07T04:10:30;97076.28;;;4.47
19102;BMP280;9683;49.028;12.064;2022-12-07T04:12:57;97073.09;;;4.51
19102;BMP280;9683;49.028;12.064;2022-12-07T04:15:24;97082.88;;;4.57
19102;BMP280;9683;49.028;12.064;2022-12-07T04:17:51;97078.78;;;4.55
19102;BMP280;9683;49.028;12.064;2022-12-07T04:20:19;97084.63;;;4.50
19102;BMP280;9683;49.028;12.064;2022-12-07T04:22:46;97068.91;;;4.57
19102;BMP280;9683;49.028;12.064;2022-12-07T04:25:13;97069.97;;;4.63
19102;BMP280;9683;49.028;12.064;2022-12-07T04:27:39;97073.22;;;4.65
19102;BMP280;9683;49.028;12.064;2022-12-07T04:30:07;97075.66;;;4.66
19102;BMP280;9683;49.028;12.064;2022-12-07T04:32:34;97070.41;;;4.66
19102;BMP280;9683;49.028;12.064;2022-12-07T04:35:00;97063.66;;;4.63
19102;BMP280;9683;49.028;12.064;2022-12-07T04:37:28;97071.22;;;4.67
19102;BMP280;9683;49.028;12.064;2022-12-07T04:39:55;97064.69;;;4.63
19102;BMP280;9683;49.028;12.064;2022-12-07T04:42:21;97069.75;;;4.64
19102;BMP280;9683;49.028;12.064;2022-12-07T04:44:48;97071.00;;;4.68
19102;BMP280;9683;49.028;12.064;2022-12-07T04:47:16;97064.91;;;4.68
19102;BMP280;9683;49.028;12.064;2022-12-07T04:49:42;97066.56;;;4.69
19102;BMP280;9683;49.028;12.064;2022-12-07T04:52:09;97062.50;;;4.66
19102;BMP280;9683;49.028;12.064;2022-12-07T04:54:37;97052.13;;;4.65
19102;BMP280;9683;49.028;12.064;2022-12-07T04:57:03;97052.31;;;4.63
19102;BMP280;9683;49.028;12.064;2022-12-07T04:59:30;97056.97;;;4.61
19102;BMP280;9683;49.028;12.064;2022-12-07T05:01:57;97052.09;;;4.58
19102;BMP280;9683;49.028;12.064;2022-12-07T05:04:23;97051.06;;;4.59
19102;BMP280;9683;49.028;12.064;2022-12-07T05:06:50;97041.91;;;4.55
19102;BMP280;9683;49.028;12.064;2022-12-07T05:09:17;97037.13;;;4.58
19102;BMP280;9683;49.028;12.064;2022-12-07T05:11:45;97041.59;;;4.65
19102;BMP280;9683;49.028;12.064;2022-12-07T05:14:14;97027.25;;;4.67
19102;BMP280;9683;49.028;12.064;2022-12-07T05:16:42;97036.16;;;4.66
19102;BMP280;9683;49.028;12.064;2022-12-07T05:19:09;97034.13;;;4.68
19102;BMP280;9683;49.028;12.064;2022-12-07T05:21:36;97033.78;;;4.71
19102;BMP280;9683;49.028;12.064;2022-12-07T05:24:03;97034.75;;;4.70
19102;BMP280;9683;49.028;12.064;2022-12-07T05:26:30;97030.69;;;4.68
19102;BMP280;9683;49.028;12.064;2022-12-07T05:28:59;97025.06;;;4.71
19102;BMP280;9683;49.028;12.064;2022-12-07T05:31:26;97025.88;;;4.71
19102;BMP280;9683;49.028;12.064;2022-12-07T05:33:53;97021.59;;;4.70
19102;BMP280;9683;49.028;12.064;2022-12-07T05:36:20;97025.88;;;4.71
19102;BMP280;9683;49.028;12.064;2022-12-07T05:38:46;97026.88;;;4.70
19102;BMP280;9683;49.028;12.064;2022-12-07T05:41:16;97019.56;;;4.72
19102;BMP280;9683;49.028;12.064;2022-12-07T05:44:02;97026.03;;;4.70
19102;BMP280;9683;49.028;12.064;2022-12-07T05:46:28;97017.50;;;4.68
19102;BMP280;9683;49.028;12.064;2022-12-07T05:48:55;97029.88;;;4.67
19102;BMP280;9683;49.028;12.064;2022-12-07T05:51:22;97035.72;;;4.63
19102;BMP280;9683;49.028;12.064;2022-12-07T05:53:49;97035.47;;;4.57
19102;BMP280;9683;49.028;12.064;2022-12-07T05:56:15;97040.31;;;4.54
19102;BMP280;9683;49.028;12.064;2022-12-07T05:58:42;97043.13;;;4.52
19102;BMP280;9683;49.028;12.064;2022-12-07T06:01:27;97045.94;;;4.51
19102;BMP280;9683;49.028;12.064;2022-12-07T06:03:54;97049.34;;;4.45
19102;BMP280;9683;49.028;12.064;2022-12-07T06:06:21;97049.75;;;4.42
19102;BMP280;9683;49.028;12.064;2022-12-07T06:08:47;97059.81;;;4.38
19102;BMP280;9683;49.028;12.064;2022-12-07T06:11:14;97051.69;;;4.33
19102;BMP280;9683;49.028;12.064;2022-12-07T06:13:58;97054.78;;;4.22
19102;BMP280;9683;49.028;12.064;2022-12-07T06:16:24;97051.16;;;4.23
19102;BMP280;9683;49.028;12.064;2022-12-07T06:18:52;97057.88;;;4.26
19102;BMP280;9683;49.028;12.064;2022-12-07T06:21:19;97050.34;;;4.23
19102;BMP280;9683;49.028;12.064;2022-12-07T06:23:46;97059.00;;;4.17
19102;BMP280;9683;49.028;12.064;2022-12-07T06:26:13;97059.56;;;4.12
19102;BMP280;9683;49.028;12.064;2022-12-07T06:28:39;97066.00;;;4.09
19102;BMP280;9683;49.028;12.064;2022-12-07T06:31:07;97063.75;;;4.06
19102;BMP280;9683;49.028;12.064;2022-12-07T06:33:34;97074.47;;;4.05
19102;BMP280;9683;49.028;12.064;2022-12-07T06:36:02;97070.22;;;4.04
19102;BMP280;9683;49.028;12.064;2022-12-07T06:38:29;97066.56;;;4.05
19102;BMP280;9683;49.028;12.064;2022-12-07T06:40:55;97063.13;;;4.04
19102;BMP280;9683;49.028;12.064;2022-12-07T06:43:22;97059.69;;;4.04
19102;BMP280;9683;49.028;12.064;2022-12-07T06:45:49;97063.13;;;4.04
19102;BMP280;9683;49.028;12.064;2022-12-07T06:48:16;97071.00;;;4.04
19102;BMP280;9683;49.028;12.064;2022-12-07T06:50:44;97072.22;;;4.02
19102;BMP280;9683;49.028;12.064;2022-12-07T06:53:12;97081.09;;;4.01
19102;BMP280;9683;49.028;12.064;2022-12-07T06:55:39;97085.75;;;3.99
19102;BMP280;9683;49.028;12.064;2022-12-07T06:58:05;97082.91;;;4.00
19102;BMP280;9683;49.028;12.064;2022-12-07T07:00:32;97078.28;;;4.02
19102;BMP280;9683;49.028;12.064;2022-12-07T07:03:00;97081.53;;;4.04
19102;BMP280;9683;49.028;12.064;2022-12-07T07:05:26;97084.63;;;4.08
19102;BMP280;9683;49.028;12.064;2022-12-07T07:07:53;97093.13;;;4.10
19102;BMP280;9683;49.028;12.064;2022-12-07T07:10:21;97089.91;;;4.08
19102;BMP280;9683;49.028;12.064;2022-12-07T07:12:47;97079.53;;;4.06
19102;BMP280;9683;49.028;12.064;2022-12-07T07:15:14;97083.44;;;4.10
19102;BMP280;9683;49.028;12.064;2022-12-07T07:17:41;97075.53;;;4.10
19102;BMP280;9683;49.028;12.064;2022-12-07T07:20:08;97083.44;;;4.10
19102;BMP280;9683;49.028;12.064;2022-12-07T07:22:35;97086.25;;;4.09
19102;BMP280;9683;49.028;12.064;2022-12-07T07:25:02;97075.16;;;4.13
19102;BMP280;9683;49.028;12.064;2022-12-07T07:27:30;97080.28;;;4.22
19102;BMP280;9683;49.028;12.064;2022-12-07T07:29:56;97078.34;;;4.30
19102;BMP280;9683;49.028;12.064;2022-12-07T07:32:23;97066.88;;;4.38
19102;BMP280;9683;49.028;12.064;2022-12-07T07:34:50;97068.78;;;4.44
19102;BMP280;9683;49.028;12.064;2022-12-07T07:37:16;97065.16;;;4.45
19102;BMP280;9683;49.028;12.064;2022-12-07T07:39:43;97074.69;;;4.46
19102;BMP280;9683;49.028;12.064;2022-12-07T07:42:10;97097.00;;;4.50
19102;BMP280;9683;49.028;12.064;2022-12-07T07:44:38;97091.59;;;4.58
19102;BMP280;9683;49.028;12.064;2022-12-07T07:47:04;97090.81;;;4.64
19102;BMP280;9683;49.028;12.064;2022-12-07T07:49:31;97091.72;;;4.71
19102;BMP280;9683;49.028;12.064;2022-12-07T07:51:58;97094.97;;;4.73
19102;BMP280;9683;49.028;12.064;2022-12-07T07:54:24;97094.56;;;4.76
19102;BMP280;9683;49.028;12.064;2022-12-07T07:56:52;97096.06;;;4.85
19102;BMP280;9683;49.028;12.064;2022-12-07T07:59:18;97105.59;;;4.86
19102;BMP280;9683;49.028;12.064;2022-12-07T08:01:46;97097.31;;;4.89
19102;BMP280;9683;49.028;12.064;2022-12-07T08:04:13;97095.31;;;4.91
19102;BMP280;9683;49.028;12.064;2022-12-07T08:06:40;97103.22;;;4.91
19102;BMP280;9683;49.028;12.064;2022-12-07T08:09:07;97091.69;;;4.92
19102;BMP280;9683;49.028;12.064;2022-12-07T08:11:34;97095.50;;;4.90
19102;BMP280;9683;49.028;12.064;2022-12-07T08:14:01;97103.22;;;4.91
19102;BMP280;9683;49.028;12.064;2022-12-07T08:16:28;97100.53;;;4.85
19102;BMP280;9683;49.028;12.064;2022-12-07T08:18:56;97096.47;;;4.82
19102;BMP280;9683;49.028;12.064;2022-12-07T08:21:23;97100.66;;;4.77
19102;BMP280;9683;49.028;12.064;2022-12-07T08:23:49;97107.38;;;4.79
19102;BMP280;9683;49.028;12.064;2022-12-07T08:26:16;97099.91;;;4.83
19102;BMP280;9683;49.028;12.064;2022-12-07T08:28:43;97102.59;;;4.89
19102;BMP280;9683;49.028;12.064;2022-12-07T08:31:12;97100.78;;;4.90
19102;BMP280;9683;49.028;12.064;2022-12-07T08:33:39;97112.75;;;4.92
19102;BMP280;9683;49.028;12.064;2022-12-07T08:36:09;97110.31;;;4.91
19102;BMP280;9683;49.028;12.064;2022-12-07T08:38:37;97106.09;;;4.96
19102;BMP280;9683;49.028;12.064;2022-12-07T08:41:04;97111.03;;;5.06
19102;BMP280;9683;49.028;12.064;2022-12-07T08:43:32;97110.88;;;5.14
19102;BMP280;9683;49.028;12.064;2022-12-07T08:46:06;97111.13;;;5.19
19102;BMP280;9683;49.028;12.064;2022-12-07T08:48:36;97104.03;;;5.20
19102;BMP280;9683;49.028;12.064;2022-12-07T08:51:04;97106.28;;;5.23
19102;BMP280;9683;49.028;12.064;2022-12-07T08:53:32;97113.38;;;5.22
19102;BMP280;9683;49.028;12.064;2022-12-07T08:56:00;97114.19;;;5.23
19102;BMP280;9683;49.028;12.064;2022-12-07T08:58:27;97112.78;;;5.27
19102;BMP280;9683;49.028;12.064;2022-12-07T09:00:53;97116.06;;;5.29
19102;BMP280;9683;49.028;12.064;2022-12-07T09:03:20;97114.50;;;5.34
19102;BMP280;9683;49.028;12.064;2022-12-07T09:05:46;97109.00;;;5.36
19102;BMP280;9683;49.028;12.064;2022-12-07T09:08:13;97121.78;;;5.39
19102;BMP280;9683;49.028;12.064;2022-12-07T09:10:41;97122.66;;;5.46
19102;BMP280;9683;49.028;12.064;2022-12-07T09:13:08;97123.50;;;5.53
19102;BMP280;9683;49.028;12.064;2022-12-07T09:15:35;97121.09;;;5.58
19102;BMP280;9683;49.028;12.064;2022-12-07T09:18:01;97119.53;;;5.64
19102;BMP280;9683;49.028;12.064;2022-12-07T09:20:28;97118.50;;;5.65
19102;BMP280;9683;49.028;12.064;2022-12-07T09:22:55;97118.50;;;5.65
19102;BMP280;9683;49.028;12.064;2022-12-07T09:25:21;97122.78;;;5.66
19102;BMP280;9683;49.028;12.064;2022-12-07T09:27:55;97119.38;;;5.72
19102;BMP280;9683;49.028;12.064;2022-12-07T09:30:21;97113.50;;;5.76
19102;BMP280;9683;49.028;12.064;2022-12-07T09:32:48;97116.13;;;5.76
19102;BMP280;9683;49.028;12.064;2022-12-07T09:35:15;97114.75;;;5.80
19102;BMP280;9683;49.028;12.064;2022-12-07T09:37:42;97111.28;;;5.80
19102;BMP280;9683;49.028;12.064;2022-12-07T09:40:09;97103.13;;;5.75
19102;BMP280;9683;49.028;12.064;2022-12-07T09:42:37;97109.38;;;5.67
19102;BMP280;9683;49.028;12.064;2022-12-07T09:45:10;97110.78;;;5.63
19102;BMP280;9683;49.028;12.064;2022-12-07T09:47:38;97114.44;;;5.62
19102;BMP280;9683;49.028;12.064;2022-12-07T09:50:11;97116.06;;;5.63
19102;BMP280;9683;49.028;12.064;2022-12-07T09:52:39;97099.19;;;5.58
19102;BMP280;9683;49.028;12.064;2022-12-07T09:55:11;97103.22;;;5.53
19102;BMP280;9683;49.028;12.064;2022-12-07T09:57:38;97104.38;;;5.44
19102;BMP280;9683;49.028;12.064;2022-12-07T10:00:14;97099.94;;;5.45
19102;BMP280;9683;49.028;12.064;2022-12-07T10:02:44;97096.06;;;5.47
19102;BMP280;9683;49.028;12.064;2022-12-07T10:05:15;97101.00;;;5.50
19102;BMP280;9683;49.028;12.064;2022-12-07T10:07:42;97098.13;;;5.45
19102;BMP280;9683;49.028;12.064;2022-12-07T10:10:15;97100.16;;;5.50
19102;BMP280;9683;49.028;12.064;2022-12-07T10:12:58;97079.00;;;5.43
19102;BMP280;9683;49.028;12.064;2022-12-07T10:15:42;97080.03;;;5.42
19102;BMP280;9683;49.028;12.064;2022-12-07T10:18:21;97088.13;;;5.41
19102;BMP280;9683;49.028;12.064;2022-12-07T10:21:01;97070.25;;;5.36
19102;BMP280;9683;49.028;12.064;2022-12-07T10:23:28;97067.22;;;5.33
19102;BMP280;9683;49.028;12.064;2022-12-07T10:25:55;97059.25;;;5.26
19102;BMP280;9683;49.028;12.064;2022-12-07T10:28:21;97063.47;;;5.21
19102;BMP280;9683;49.028;12.064;2022-12-07T10:30:53;97064.31;;;5.21
19102;BMP280;9683;49.028;12.064;2022-12-07T10:33:33;97053.34;;;5.18
19102;BMP280;9683;49.028;12.064;2022-12-07T10:36:15;97045.22;;;5.19
19102;BMP280;9683;49.028;12.064;2022-12-07T10:38:45;97052.94;;;5.21
19102;BMP280;9683;49.028;12.064;2022-12-07T10:41:12;97051.13;;;5.21
19102;BMP280;9683;49.028;12.064;2022-12-07T10:43:46;97041.97;;;5.17
19102;BMP280;9683;49.028;12.064;2022-12-07T10:49:58;97042.41;;;5.21
19102;BMP280;9683;49.028;12.064;2022-12-07T10:52:46;97035.31;;;5.21
19102;BMP280;9683;49.028;12.064;2022-12-07T10:55:22;97038.16;;;5.26
19102;BMP280;9683;49.028;12.064;2022-12-07T10:57:58;97035.38;;;5.34
19102;BMP280;9683;49.028;12.064;2022-12-07T11:00:31;97029.88;;;5.36
19102;BMP280;9683;49.028;12.064;2022-12-07T11:03:32;97031.53;;;5.43
19102;BMP280;9683;49.028;12.064;2022-12-07T11:06:13;97034.41;;;5.48
19102;BMP280;9683;49.028;12.064;2022-12-07T11:08:52;97032.34;;;5.44
19102;BMP280;9683;49.028;12.064;2022-12-07T11:11:24;97029.53;;;5.45
19102;BMP280;9683;49.028;12.064;2022-12-07T11:13:58;97030.13;;;5.41
19102;BMP280;9683;49.028;12.064;2022-12-07T11:16:48;97032.19;;;5.45
19102;BMP280;9683;49.028;12.064;2022-12-07T11:19:26;97021.44;;;5.47
19102;BMP280;9683;49.028;12.064;2022-12-07T11:22:03;97023.44;;;5.45
19102;BMP280;9683;49.028;12.064;2022-12-07T11:24:35;97014.53;;;5.46
19102;BMP280;9683;49.028;12.064;2022-12-07T11:27:16;97020.41;;;5.48
19102;BMP280;9683;49.028;12.064;2022-12-07T11:29:56;97011.69;;;5.47
19102;BMP280;9683;49.028;12.064;2022-12-07T11:32:39;97016.53;;;5.44
19102;BMP280;9683;49.028;12.064;2022-12-07T11:35:18;97010.91;;;5.53
19102;BMP280;9683;49.028;12.064;2022-12-07T11:37:49;97012.13;;;5.58
19102;BMP280;9683;49.028;12.064;2022-12-07T11:40:20;97004.22;;;5.51
19102;BMP280;9683;49.028;12.064;2022-12-07T11:42:52;96999.72;;;5.51
19102;BMP280;9683;49.028;12.064;2022-12-07T11:45:26;97000.78;;;5.57
19102;BMP280;9683;49.028;12.064;2022-12-07T11:47:55;97006.22;;;5.55
19102;BMP280;9683;49.028;12.064;2022-12-07T11:50:30;97006.03;;;5.57
19102;BMP280;9683;49.028;12.064;2022-12-07T11:53:02;97000.19;;;5.62
19102;BMP280;9683;49.028;12.064;2022-12-07T11:55:41;97001.19;;;5.61
19102;BMP280;9683;49.028;12.064;2022-12-07T11:58:19;97009.91;;;5.61
19102;BMP280;9683;49.028;12.064;2022-12-07T12:00:48;97003.81;;;5.61
19102;BMP280;9683;49.028;12.064;2022-12-07T12:03:20;97002.63;;;5.63
19102;BMP280;9683;49.028;12.064;2022-12-07T12:05:50;96998.59;;;5.67
19102;BMP280;9683;49.028;12.064;2022-12-07T12:08:21;96998.38;;;5.69
19102;BMP280;9683;49.028;12.064;2022-12-07T12:10:55;96994.72;;;5.70
19102;BMP280;9683;49.028;12.064;2022-12-07T12:13:45;96989.44;;;5.70
19102;BMP280;9683;49.028;12.064;2022-12-07T12:16:34;96996.34;;;5.71
19102;BMP280;9683;49.028;12.064;2022-12-07T12:19:25;96989.63;;;5.68
19102;BMP280;9683;49.028;12.064;2022-12-07T12:22:05;96984.97;;;5.64
19102;BMP280;9683;49.028;12.064;2022-12-07T12:24:37;96997.94;;;5.65
19102;BMP280;9683;49.028;12.064;2022-12-07T12:27:08;96988.84;;;5.68
19102;BMP280;9683;49.028;12.064;2022-12-07T12:29:37;96991.66;;;5.60
19102;BMP280;9683;49.028;12.064;2022-12-07T12:32:07;96987.16;;;5.53
19102;BMP280;9683;49.028;12.064;2022-12-07T12:34:39;96995.66;;;5.42
19102;BMP280;9683;49.028;12.064;2022-12-07T12:37:39;96982.25;;;5.37
19102;BMP280;9683;49.028;12.064;2022-12-07T12:40:42;96992.78;;;5.37
19102;BMP280;9683;49.028;12.064;2022-12-07T12:46:50;96988.34;;;5.44
19102;BMP280;9683;49.028;12.064;2022-12-07T12:49:41;96978.25;;;5.54
19102;BMP280;9683;49.028;12.064;2022-12-07T12:58:39;96970.94;;;5.57
19102;BMP280;9683;49.028;12.064;2022-12-07T13:07:12;96965.84;;;5.48
19102;BMP280;9683;49.028;12.064;2022-12-07T13:09:43;96963.00;;;5.50
19102;BMP280;9683;49.028;12.064;2022-12-07T13:12:14;96964.03;;;5.55
19102;BMP280;9683;49.028;12.064;2022-12-07T13:14:52;96969.94;;;5.58
19102;BMP280;9683;49.028;12.064;2022-12-07T13:20:52;96959.38;;;5.58
19102;BMP280;9683;49.028;12.064;2022-12-07T13:23:24;96952.47;;;5.57
19102;BMP280;9683;49.028;12.064;2022-12-07T13:26:04;96954.09;;;5.58
19102;BMP280;9683;49.028;12.064;2022-12-07T13:28:36;96961.44;;;5.62
19102;BMP280;9683;49.028;12.064;2022-12-07T13:31:14;96957.56;;;5.65
19102;BMP280;9683;49.028;12.064;2022-12-07T13:33:43;96963.25;;;5.62
19102;BMP280;9683;49.028;12.064;2022-12-07T13:36:18;96954.91;;;5.65
19102;BMP280;9683;49.028;12.064;2022-12-07T13:38:53;96964.88;;;5.69
19102;BMP280;9683;49.028;12.064;2022-12-07T13:41:21;96963.06;;;5.70
19102;BMP280;9683;49.028;12.064;2022-12-07T13:43:51;96962.25;;;5.69
19102;BMP280;9683;49.028;12.064;2022-12-07T13:46:25;96962.88;;;5.71
19102;BMP280;9683;49.028;12.064;2022-12-07T13:48:52;96958.78;;;5.69
19102;BMP280;9683;49.028;12.064;2022-12-07T13:51:22;96957.19;;;5.68
19102;BMP280;9683;49.028;12.064;2022-12-07T13:53:51;96957.78;;;5.70
19102;BMP280;9683;49.028;12.064;2022-12-07T13:56:18;96957.38;;;5.73
19102;BMP280;9683;49.028;12.064;2022-12-07T13:58:47;96957.81;;;5.76
19102;BMP280;9683;49.028;12.064;2022-12-07T14:01:14;96957.00;;;5.76
19102;BMP280;9683;49.028;12.064;2022-12-07T14:03:42;96963.50;;;5.80
19102;BMP280;9683;49.028;12.064;2022-12-07T14:06:18;96956.59;;;5.79
19102;BMP280;9683;49.028;12.064;2022-12-07T14:08:45;96952.53;;;5.83
19102;BMP280;9683;49.028;12.064;2022-12-07T14:11:17;96960.28;;;5.91
19102;BMP280;9683;49.028;12.064;2022-12-07T14:13:53;96957.25;;;5.94
19102;BMP280;9683;49.028;12.064;2022-12-07T14:16:25;96961.09;;;5.98
19102;BMP280;9683;49.028;12.064;2022-12-07T14:18:55;96962.75;;;5.99
19102;BMP280;9683;49.028;12.064;2022-12-07T14:21:24;96962.75;;;5.99
19102;BMP280;9683;49.028;12.064;2022-12-07T14:24:14;96963.75;;;5.98
19102;BMP280;9683;49.028;12.064;2022-12-07T14:26:42;96961.31;;;5.96
19102;BMP280;9683;49.028;12.064;2022-12-07T14:29:27;96962.75;;;5.99
19102;BMP280;9683;49.028;12.064;2022-12-07T14:31:56;96954.41;;;5.95
19102;BMP280;9683;49.028;12.064;2022-12-07T14:34:25;96962.75;;;5.99
19102;BMP280;9683;49.028;12.064;2022-12-07T14:36:51;96955.03;;;5.97
19102;BMP280;9683;49.028;12.064;2022-12-07T14:39:18;96961.09;;;5.91
19102;BMP280;9683;49.028;12.064;2022-12-07T14:41:45;96956.66;;;5.92
19102;BMP280;9683;49.028;12.064;2022-12-07T14:44:19;96957.25;;;5.87
19102;BMP280;9683;49.028;12.064;2022-12-07T14:46:46;96953.34;;;5.83
19102;BMP280;9683;49.028;12.064;2022-12-07T14:49:13;96958.22;;;5.80
19102;BMP280;9683;49.028;12.064;2022-12-07T14:51:41;96956.19;;;5.75
19102;BMP280;9683;49.028;12.064;2022-12-07T14:54:14;96947.84;;;5.72
19102;BMP280;9683;49.028;12.064;2022-12-07T14:56:42;96948.22;;;5.69
19102;BMP280;9683;49.028;12.064;2022-12-07T14:59:09;96946.41;;;5.69
19102;BMP280;9683;49.028;12.064;2022-12-07T15:01:36;96945.41;;;5.70
19102;BMP280;9683;49.028;12.064;2022-12-07T15:04:03;96946.63;;;5.68